sensor_id;sensor_type;location;lat;lon;timestamp;P1;durP1;ratioP1;P2;durP2;ratioP2
6547;SDS011;3307;52.416;16.862;2023-05-15T00:00:34;3.60;;;3.20;;
6547;SDS011;3307;52.416;16.862;2023-05-15T00:03:01;3.50;;;2.95;;
6547;SDS011;3307;52.416;16.862;2023-05-15T00:05:26;4.43;;;3.60;;
6547;SDS011;3307;52.416;16.862;2023-05-15T00:07:52;4.90;;;3.10;;
6547;SDS011;3307;52.416;16.862;2023-05-15T00:10:17;3.97;;;3.47;;
6547;SDS011;3307;52.416;16.862;2023-05-15T00:12:43;4.23;;;3.07;;
6547;SDS011;3307;52.416;16.862;2023-05-15T00:15:08;3.73;;;3.40;;
6547;SDS011;3307;52.416;16.862;2023-05-15T00:17:34;3.63;;;3.20;;
6547;SDS011;3307;52.416;16.862;2023-05-15T00:19:59;5.73;;;3.33;;
6547;SDS011;3307;52.416;16.862;2023-05-15T00:22:25;3.90;;;3.10;;
6547;SDS011;3307;52.416;16.862;2023-05-15T00:24:50;2.73;;;2.50;;
6547;SDS011;3307;52.416;16.862;2023-05-15T00:27:16;3.43;;;2.80;;
6547;SDS011;3307;52.416;16.862;2023-05-15T00:29:41;3.43;;;3.13;;
6547;SDS011;3307;52.416;16.862;2023-05-15T00:32:06;3.60;;;2.83;;
6547;SDS011;3307;52.416;16.862;2023-05-15T00:34:32;3.37;;;2.90;;
6547;SDS011;3307;52.416;16.862;2023-05-15T00:36:58;3.70;;;3.40;;
6547;SDS011;3307;52.416;16.862;2023-05-15T00:39:23;3.17;;;2.40;;
6547;SDS011;3307;52.416;16.862;2023-05-15T00:41:49;3.50;;;3.17;;
6547;SDS011;3307;52.416;16.862;2023-05-15T00:44:16;2.55;;;2.35;;
6547;SDS011;3307;52.416;16.862;2023-05-15T00:46:43;2.90;;;2.70;;
6547;SDS011;3307;52.416;16.862;2023-05-15T00:49:09;5.47;;;3.05;;
6547;SDS011;3307;52.416;16.862;2023-05-15T00:51:40;3.05;;;2.72;;
6547;SDS011;3307;52.416;16.862;2023-05-15T00:54:09;4.03;;;3.72;;
6547;SDS011;3307;52.416;16.862;2023-05-15T00:56:36;5.90;;;3.05;;
6547;SDS011;3307;52.416;16.862;2023-05-15T00:59:02;3.90;;;3.22;;
6547;SDS011;3307;52.416;16.862;2023-05-15T01:01:28;3.22;;;2.90;;
6547;SDS011;3307;52.416;16.862;2023-05-15T01:03:58;3.15;;;2.72;;
6547;SDS011;3307;52.416;16.862;2023-05-15T01:06:24;4.47;;;2.93;;
6547;SDS011;3307;52.416;16.862;2023-05-15T01:08:49;2.97;;;2.67;;
6547;SDS011;3307;52.416;16.862;2023-05-15T01:11:16;5.27;;;3.43;;
6547;SDS011;3307;52.416;16.862;2023-05-15T01:13:42;3.10;;;2.50;;
6547;SDS011;3307;52.416;16.862;2023-05-15T01:16:07;3.40;;;3.10;;
6547;SDS011;3307;52.416;16.862;2023-05-15T01:18:34;3.92;;;3.35;;
6547;SDS011;3307;52.416;16.862;2023-05-15T01:31:56;6.20;;;3.92;;
6547;SDS011;3307;52.416;16.862;2023-05-15T01:34:25;4.80;;;3.60;;
6547;SDS011;3307;52.416;16.862;2023-05-15T01:37:03;4.43;;;3.80;;
6547;SDS011;3307;52.416;16.862;2023-05-15T01:39:31;5.55;;;3.60;;
6547;SDS011;3307;52.416;16.862;2023-05-15T01:44:42;5.43;;;3.80;;
6547;SDS011;3307;52.416;16.862;2023-05-15T01:47:14;4.82;;;3.90;;
6547;SDS011;3307;52.416;16.862;2023-05-15T01:49:45;5.00;;;3.83;;
6547;SDS011;3307;52.416;16.862;2023-05-15T01:52:13;5.32;;;4.82;;
6547;SDS011;3307;52.416;16.862;2023-05-15T01:54:41;4.38;;;3.83;;
6547;SDS011;3307;52.416;16.862;2023-05-15T01:57:06;4.85;;;3.90;;
6547;SDS011;3307;52.416;16.862;2023-05-15T01:59:33;4.40;;;3.67;;
6547;SDS011;3307;52.416;16.862;2023-05-15T02:01:59;4.65;;;3.88;;
6547;SDS011;3307;52.416;16.862;2023-05-15T02:04:26;4.47;;;4.03;;
6547;SDS011;3307;52.416;16.862;2023-05-15T02:06:52;5.70;;;4.20;;
6547;SDS011;3307;52.416;16.862;2023-05-15T02:09:18;5.00;;;4.10;;
6547;SDS011;3307;52.416;16.862;2023-05-15T02:11:45;5.07;;;4.13;;
6547;SDS011;3307;52.416;16.862;2023-05-15T02:14:11;4.68;;;4.18;;
6547;SDS011;3307;52.416;16.862;2023-05-15T02:16:36;4.77;;;3.80;;
6547;SDS011;3307;52.416;16.862;2023-05-15T02:19:02;5.00;;;4.50;;
6547;SDS011;3307;52.416;16.862;2023-05-15T02:21:28;5.60;;;4.90;;
6547;SDS011;3307;52.416;16.862;2023-05-15T02:23:53;6.83;;;4.60;;
6547;SDS011;3307;52.416;16.862;2023-05-15T02:26:25;5.40;;;4.90;;
6547;SDS011;3307;52.416;16.862;2023-05-15T02:31:51;5.28;;;4.35;;
6547;SDS011;3307;52.416;16.862;2023-05-15T02:35:09;4.68;;;4.15;;
6547;SDS011;3307;52.416;16.862;2023-05-15T02:37:29;5.88;;;4.18;;
6547;SDS011;3307;52.416;16.862;2023-05-15T02:39:56;4.70;;;3.88;;
6547;SDS011;3307;52.416;16.862;2023-05-15T02:42:24;4.88;;;4.03;;
6547;SDS011;3307;52.416;16.862;2023-05-15T02:44:51;8.40;;;4.10;;
6547;SDS011;3307;52.416;16.862;2023-05-15T02:47:18;4.55;;;4.15;;
6547;SDS011;3307;52.416;16.862;2023-05-15T02:49:43;4.93;;;4.20;;
6547;SDS011;3307;52.416;16.862;2023-05-15T02:52:09;4.93;;;4.30;;
6547;SDS011;3307;52.416;16.862;2023-05-15T02:54:34;5.03;;;4.23;;
6547;SDS011;3307;52.416;16.862;2023-05-15T02:57:00;8.47;;;4.90;;
6547;SDS011;3307;52.416;16.862;2023-05-15T02:59:25;5.80;;;4.60;;
6547;SDS011;3307;52.416;16.862;2023-05-15T03:01:51;6.23;;;5.50;;
6547;SDS011;3307;52.416;16.862;2023-05-15T03:04:16;6.57;;;4.77;;
6547;SDS011;3307;52.416;16.862;2023-05-15T03:06:41;5.27;;;3.80;;
6547;SDS011;3307;52.416;16.862;2023-05-15T03:09:07;5.23;;;4.73;;
6547;SDS011;3307;52.416;16.862;2023-05-15T03:11:32;7.60;;;5.00;;
6547;SDS011;3307;52.416;16.862;2023-05-15T03:13:58;8.13;;;5.30;;
6547;SDS011;3307;52.416;16.862;2023-05-15T03:16:26;7.15;;;4.60;;
6547;SDS011;3307;52.416;16.862;2023-05-15T03:18:52;6.22;;;4.38;;
6547;SDS011;3307;52.416;16.862;2023-05-15T03:21:18;7.33;;;4.60;;
6547;SDS011;3307;52.416;16.862;2023-05-15T03:23:43;4.37;;;3.93;;
6547;SDS011;3307;52.416;16.862;2023-05-15T03:26:09;6.07;;;4.63;;
6547;SDS011;3307;52.416;16.862;2023-05-15T03:28:34;7.37;;;5.60;;
6547;SDS011;3307;52.416;16.862;2023-05-15T03:31:00;5.50;;;4.90;;
6547;SDS011;3307;52.416;16.862;2023-05-15T03:33:25;5.43;;;4.90;;
6547;SDS011;3307;52.416;16.862;2023-05-15T03:35:51;5.17;;;4.40;;
6547;SDS011;3307;52.416;16.862;2023-05-15T03:38:16;5.18;;;4.68;;
6547;SDS011;3307;52.416;16.862;2023-05-15T03:40:42;10.67;;;5.33;;
6547;SDS011;3307;52.416;16.862;2023-05-15T03:43:07;6.57;;;5.13;;
6547;SDS011;3307;52.416;16.862;2023-05-15T03:45:33;6.53;;;4.67;;
6547;SDS011;3307;52.416;16.862;2023-05-15T03:47:59;7.35;;;5.30;;
6547;SDS011;3307;52.416;16.862;2023-05-15T03:50:25;7.20;;;4.80;;
6547;SDS011;3307;52.416;16.862;2023-05-15T03:52:50;6.93;;;4.50;;
6547;SDS011;3307;52.416;16.862;2023-05-15T03:55:16;8.17;;;4.17;;
6547;SDS011;3307;52.416;16.862;2023-05-15T03:57:41;8.90;;;5.30;;
6547;SDS011;3307;52.416;16.862;2023-05-15T04:00:07;5.93;;;4.90;;
6547;SDS011;3307;52.416;16.862;2023-05-15T04:02:36;7.40;;;4.78;;
6547;SDS011;3307;52.416;16.862;2023-05-15T04:05:04;6.87;;;5.13;;
6547;SDS011;3307;52.416;16.862;2023-05-15T04:07:31;9.23;;;6.57;;
6547;SDS011;3307;52.416;16.862;2023-05-15T04:09:57;10.52;;;6.43;;
6547;SDS011;3307;52.416;16.862;2023-05-15T04:12:26;8.68;;;6.63;;
6547;SDS011;3307;52.416;16.862;2023-05-15T04:14:54;11.43;;;7.00;;
6547;SDS011;3307;52.416;16.862;2023-05-15T04:17:20;9.98;;;6.80;;
6547;SDS011;3307;52.416;16.862;2023-05-15T04:19:46;9.13;;;6.30;;
6547;SDS011;3307;52.416;16.862;2023-05-15T04:22:12;8.60;;;6.77;;
6547;SDS011;3307;52.416;16.862;2023-05-15T04:24:37;6.43;;;5.63;;
6547;SDS011;3307;52.416;16.862;2023-05-15T04:27:03;8.47;;;5.30;;
6547;SDS011;3307;52.416;16.862;2023-05-15T04:29:29;6.67;;;5.93;;
6547;SDS011;3307;52.416;16.862;2023-05-15T04:31:54;7.20;;;6.50;;
6547;SDS011;3307;52.416;16.862;2023-05-15T04:34:20;8.87;;;6.60;;
6547;SDS011;3307;52.416;16.862;2023-05-15T04:36:45;7.43;;;6.60;;
6547;SDS011;3307;52.416;16.862;2023-05-15T04:39:10;9.43;;;7.30;;
6547;SDS011;3307;52.416;16.862;2023-05-15T04:41:36;10.00;;;7.23;;
6547;SDS011;3307;52.416;16.862;2023-05-15T04:44:01;10.43;;;7.30;;
6547;SDS011;3307;52.416;16.862;2023-05-15T04:46:27;10.77;;;7.70;;
6547;SDS011;3307;52.416;16.862;2023-05-15T04:48:53;9.60;;;7.07;;
6547;SDS011;3307;52.416;16.862;2023-05-15T04:51:18;12.30;;;7.90;;
6547;SDS011;3307;52.416;16.862;2023-05-15T04:53:44;12.40;;;7.50;;
6547;SDS011;3307;52.416;16.862;2023-05-15T04:56:09;11.20;;;8.10;;
6547;SDS011;3307;52.416;16.862;2023-05-15T04:58:35;9.17;;;7.17;;
6547;SDS011;3307;52.416;16.862;2023-05-15T05:01:00;10.63;;;7.40;;
6547;SDS011;3307;52.416;16.862;2023-05-15T05:03:25;7.70;;;6.77;;
6547;SDS011;3307;52.416;16.862;2023-05-15T05:05:51;10.27;;;7.23;;
6547;SDS011;3307;52.416;16.862;2023-05-15T05:08:16;7.93;;;6.63;;
6547;SDS011;3307;52.416;16.862;2023-05-15T05:10:42;9.60;;;6.60;;
6547;SDS011;3307;52.416;16.862;2023-05-15T05:13:07;7.73;;;6.43;;
6547;SDS011;3307;52.416;16.862;2023-05-15T05:15:32;7.27;;;6.57;;
6547;SDS011;3307;52.416;16.862;2023-05-15T05:17:58;10.63;;;7.50;;
6547;SDS011;3307;52.416;16.862;2023-05-15T05:20:23;9.13;;;7.67;;
6547;SDS011;3307;52.416;16.862;2023-05-15T05:22:49;13.20;;;7.93;;
6547;SDS011;3307;52.416;16.862;2023-05-15T05:25:14;10.00;;;7.17;;
6547;SDS011;3307;52.416;16.862;2023-05-15T05:27:40;9.33;;;7.20;;
6547;SDS011;3307;52.416;16.862;2023-05-15T05:30:05;11.30;;;6.90;;
6547;SDS011;3307;52.416;16.862;2023-05-15T05:32:33;9.00;;;7.20;;
6547;SDS011;3307;52.416;16.862;2023-05-15T05:34:58;8.73;;;6.97;;
6547;SDS011;3307;52.416;16.862;2023-05-15T05:37:24;8.13;;;6.83;;
6547;SDS011;3307;52.416;16.862;2023-05-15T05:39:49;10.50;;;7.60;;
6547;SDS011;3307;52.416;16.862;2023-05-15T05:42:15;11.13;;;8.43;;
6547;SDS011;3307;52.416;16.862;2023-05-15T05:44:40;13.60;;;8.90;;
6547;SDS011;3307;52.416;16.862;2023-05-15T05:47:06;11.27;;;8.33;;
6547;SDS011;3307;52.416;16.862;2023-05-15T05:49:31;12.93;;;8.13;;
6547;SDS011;3307;52.416;16.862;2023-05-15T05:52:03;12.27;;;7.93;;
6547;SDS011;3307;52.416;16.862;2023-05-15T05:54:29;10.77;;;8.00;;
6547;SDS011;3307;52.416;16.862;2023-05-15T05:56:54;12.80;;;8.17;;
6547;SDS011;3307;52.416;16.862;2023-05-15T05:59:20;9.77;;;7.38;;
6547;SDS011;3307;52.416;16.862;2023-05-15T06:01:46;9.83;;;8.40;;
6547;SDS011;3307;52.416;16.862;2023-05-15T06:04:13;8.90;;;7.15;;
6547;SDS011;3307;52.416;16.862;2023-05-15T06:06:39;10.27;;;8.50;;
6547;SDS011;3307;52.416;16.862;2023-05-15T06:09:05;9.38;;;8.38;;
6547;SDS011;3307;52.416;16.862;2023-05-15T06:11:31;11.97;;;9.80;;
6547;SDS011;3307;52.416;16.862;2023-05-15T06:13:57;10.00;;;8.80;;
6547;SDS011;3307;52.416;16.862;2023-05-15T06:16:22;12.57;;;8.90;;
6547;SDS011;3307;52.416;16.862;2023-05-15T06:18:48;12.13;;;8.50;;
6547;SDS011;3307;52.416;16.862;2023-05-15T06:21:13;10.63;;;8.37;;
6547;SDS011;3307;52.416;16.862;2023-05-15T06:23:38;8.63;;;7.73;;
6547;SDS011;3307;52.416;16.862;2023-05-15T06:26:04;10.53;;;7.90;;
6547;SDS011;3307;52.416;16.862;2023-05-15T06:28:29;10.57;;;7.23;;
6547;SDS011;3307;52.416;16.862;2023-05-15T06:30:55;9.70;;;8.30;;
6547;SDS011;3307;52.416;16.862;2023-05-15T06:33:20;10.40;;;8.33;;
6547;SDS011;3307;52.416;16.862;2023-05-15T06:35:46;10.80;;;8.10;;
6547;SDS011;3307;52.416;16.862;2023-05-15T06:38:11;9.32;;;6.85;;
6547;SDS011;3307;52.416;16.862;2023-05-15T06:40:37;9.87;;;7.57;;
6547;SDS011;3307;52.416;16.862;2023-05-15T06:43:02;8.07;;;6.77;;
6547;SDS011;3307;52.416;16.862;2023-05-15T06:45:28;9.03;;;6.93;;
6547;SDS011;3307;52.416;16.862;2023-05-15T06:47:53;9.77;;;7.57;;
6547;SDS011;3307;52.416;16.862;2023-05-15T06:50:19;9.53;;;7.60;;
6547;SDS011;3307;52.416;16.862;2023-05-15T06:52:44;9.20;;;7.57;;
6547;SDS011;3307;52.416;16.862;2023-05-15T06:55:09;9.90;;;7.53;;
6547;SDS011;3307;52.416;16.862;2023-05-15T06:57:35;9.57;;;7.77;;
6547;SDS011;3307;52.416;16.862;2023-05-15T07:00:00;9.57;;;7.93;;
6547;SDS011;3307;52.416;16.862;2023-05-15T07:02:26;9.93;;;7.00;;
6547;SDS011;3307;52.416;16.862;2023-05-15T07:04:51;6.97;;;6.37;;
6547;SDS011;3307;52.416;16.862;2023-05-15T07:07:16;9.77;;;7.80;;
6547;SDS011;3307;52.416;16.862;2023-05-15T07:09:42;7.13;;;6.53;;
6547;SDS011;3307;52.416;16.862;2023-05-15T07:12:12;8.23;;;7.35;;
6547;SDS011;3307;52.416;16.862;2023-05-15T07:14:38;8.95;;;6.32;;
6547;SDS011;3307;52.416;16.862;2023-05-15T07:17:04;7.87;;;6.90;;
6547;SDS011;3307;52.416;16.862;2023-05-15T07:19:29;8.00;;;7.07;;
6547;SDS011;3307;52.416;16.862;2023-05-15T07:21:55;7.27;;;5.23;;
6547;SDS011;3307;52.416;16.862;2023-05-15T07:24:20;10.20;;;7.07;;
6547;SDS011;3307;52.416;16.862;2023-05-15T07:26:45;7.80;;;6.60;;
6547;SDS011;3307;52.416;16.862;2023-05-15T07:29:11;7.70;;;5.60;;
6547;SDS011;3307;52.416;16.862;2023-05-15T07:31:36;6.43;;;4.90;;
6547;SDS011;3307;52.416;16.862;2023-05-15T07:34:03;6.70;;;4.70;;
6547;SDS011;3307;52.416;16.862;2023-05-15T07:36:29;7.73;;;4.90;;
6547;SDS011;3307;52.416;16.862;2023-05-15T07:38:54;5.00;;;4.07;;
6547;SDS011;3307;52.416;16.862;2023-05-15T07:41:20;6.97;;;5.60;;
6547;SDS011;3307;52.416;16.862;2023-05-15T07:43:45;6.17;;;4.50;;
6547;SDS011;3307;52.416;16.862;2023-05-15T07:46:11;6.20;;;4.93;;
6547;SDS011;3307;52.416;16.862;2023-05-15T07:48:36;5.77;;;4.80;;
6547;SDS011;3307;52.416;16.862;2023-05-15T07:51:02;6.60;;;4.87;;
6547;SDS011;3307;52.416;16.862;2023-05-15T07:53:27;6.30;;;5.00;;
6547;SDS011;3307;52.416;16.862;2023-05-15T07:55:53;8.63;;;5.17;;
6547;SDS011;3307;52.416;16.862;2023-05-15T07:58:18;8.10;;;5.50;;
6547;SDS011;3307;52.416;16.862;2023-05-15T08:00:43;9.10;;;5.80;;
6547;SDS011;3307;52.416;16.862;2023-05-15T08:03:09;8.73;;;5.57;;
6547;SDS011;3307;52.416;16.862;2023-05-15T08:05:35;7.22;;;6.40;;
6547;SDS011;3307;52.416;16.862;2023-05-15T08:08:00;6.50;;;5.00;;
6547;SDS011;3307;52.416;16.862;2023-05-15T08:10:26;9.93;;;6.03;;
6547;SDS011;3307;52.416;16.862;2023-05-15T08:12:51;7.00;;;5.23;;
6547;SDS011;3307;52.416;16.862;2023-05-15T08:15:16;6.87;;;5.97;;
6547;SDS011;3307;52.416;16.862;2023-05-15T08:17:42;8.30;;;6.03;;
6547;SDS011;3307;52.416;16.862;2023-05-15T08:20:08;7.67;;;5.90;;
6547;SDS011;3307;52.416;16.862;2023-05-15T08:22:33;7.93;;;5.72;;
6547;SDS011;3307;52.416;16.862;2023-05-15T08:24:59;6.70;;;5.80;;
6547;SDS011;3307;52.416;16.862;2023-05-15T08:27:25;7.67;;;6.00;;
6547;SDS011;3307;52.416;16.862;2023-05-15T08:29:50;7.87;;;6.13;;
6547;SDS011;3307;52.416;16.862;2023-05-15T08:32:16;6.20;;;5.57;;
6547;SDS011;3307;52.416;16.862;2023-05-15T08:34:42;7.27;;;6.20;;
6547;SDS011;3307;52.416;16.862;2023-05-15T08:37:08;9.40;;;7.00;;
6547;SDS011;3307;52.416;16.862;2023-05-15T08:39:33;7.13;;;5.80;;
6547;SDS011;3307;52.416;16.862;2023-05-15T08:42:04;8.90;;;6.47;;
6547;SDS011;3307;52.416;16.862;2023-05-15T08:44:32;7.07;;;6.38;;
6547;SDS011;3307;52.416;16.862;2023-05-15T08:46:59;9.40;;;6.95;;
6547;SDS011;3307;52.416;16.862;2023-05-15T08:52:20;9.07;;;6.47;;
6547;SDS011;3307;52.416;16.862;2023-05-15T08:54:47;7.17;;;6.10;;
6547;SDS011;3307;52.416;16.862;2023-05-15T08:57:12;8.40;;;6.93;;
6547;SDS011;3307;52.416;16.862;2023-05-15T08:59:38;10.02;;;7.60;;
6547;SDS011;3307;52.416;16.862;2023-05-15T09:02:04;9.70;;;7.30;;
6547;SDS011;3307;52.416;16.862;2023-05-15T09:04:29;8.57;;;6.63;;
6547;SDS011;3307;52.416;16.862;2023-05-15T09:06:55;8.33;;;7.00;;
6547;SDS011;3307;52.416;16.862;2023-05-15T09:09:23;8.18;;;7.38;;
6547;SDS011;3307;52.416;16.862;2023-05-15T09:11:48;8.43;;;7.00;;
6547;SDS011;3307;52.416;16.862;2023-05-15T09:14:14;10.40;;;7.65;;
6547;SDS011;3307;52.416;16.862;2023-05-15T09:16:40;9.00;;;6.70;;
6547;SDS011;3307;52.416;16.862;2023-05-15T09:19:05;8.50;;;7.57;;
6547;SDS011;3307;52.416;16.862;2023-05-15T09:21:31;10.37;;;7.70;;
6547;SDS011;3307;52.416;16.862;2023-05-15T09:27:04;9.27;;;7.53;;
6547;SDS011;3307;52.416;16.862;2023-05-15T09:29:31;8.20;;;6.50;;
6547;SDS011;3307;52.416;16.862;2023-05-15T09:32:01;8.53;;;7.07;;
6547;SDS011;3307;52.416;16.862;2023-05-15T09:34:28;10.43;;;7.10;;
6547;SDS011;3307;52.416;16.862;2023-05-15T09:36:55;9.77;;;7.50;;
6547;SDS011;3307;52.416;16.862;2023-05-15T09:39:23;12.47;;;8.87;;
6547;SDS011;3307;52.416;16.862;2023-05-15T09:41:49;8.77;;;6.75;;
6547;SDS011;3307;52.416;16.862;2023-05-15T09:44:18;10.40;;;7.27;;
6547;SDS011;3307;52.416;16.862;2023-05-15T09:46:50;9.02;;;7.07;;
6547;SDS011;3307;52.416;16.862;2023-05-15T09:49:16;8.80;;;6.70;;
6547;SDS011;3307;52.416;16.862;2023-05-15T09:51:43;8.00;;;7.18;;
6547;SDS011;3307;52.416;16.862;2023-05-15T09:54:18;6.87;;;6.07;;
6547;SDS011;3307;52.416;16.862;2023-05-15T09:56:43;8.77;;;6.77;;
6547;SDS011;3307;52.416;16.862;2023-05-15T09:59:13;8.50;;;6.77;;
6547;SDS011;3307;52.416;16.862;2023-05-15T10:01:47;10.70;;;7.47;;
6547;SDS011;3307;52.416;16.862;2023-05-15T10:04:13;8.67;;;7.77;;
6547;SDS011;3307;52.416;16.862;2023-05-15T10:06:44;7.37;;;6.67;;
6547;SDS011;3307;52.416;16.862;2023-05-15T10:09:11;8.60;;;7.10;;
6547;SDS011;3307;52.416;16.862;2023-05-15T10:11:39;9.33;;;7.20;;
6547;SDS011;3307;52.416;16.862;2023-05-15T10:14:06;8.43;;;6.70;;
6547;SDS011;3307;52.416;16.862;2023-05-15T10:16:34;8.77;;;7.03;;
6547;SDS011;3307;52.416;16.862;2023-05-15T10:19:04;8.67;;;7.17;;
6547;SDS011;3307;52.416;16.862;2023-05-15T10:21:31;13.33;;;7.70;;
6547;SDS011;3307;52.416;16.862;2023-05-15T10:23:58;13.20;;;7.50;;
6547;SDS011;3307;52.416;16.862;2023-05-15T10:26:28;8.60;;;7.13;;
6547;SDS011;3307;52.416;16.862;2023-05-15T10:29:08;10.23;;;7.80;;
6547;SDS011;3307;52.416;16.862;2023-05-15T10:31:34;8.33;;;7.53;;
6547;SDS011;3307;52.416;16.862;2023-05-15T10:34:01;11.93;;;8.95;;
6547;SDS011;3307;52.416;16.862;2023-05-15T10:36:27;13.77;;;8.10;;
6547;SDS011;3307;52.416;16.862;2023-05-15T10:38:53;10.33;;;7.80;;
6547;SDS011;3307;52.416;16.862;2023-05-15T10:41:19;8.57;;;7.60;;
6547;SDS011;3307;52.416;16.862;2023-05-15T10:43:45;9.43;;;8.43;;
6547;SDS011;3307;52.416;16.862;2023-05-15T10:46:12;10.87;;;6.90;;
6547;SDS011;3307;52.416;16.862;2023-05-15T10:48:37;9.67;;;7.07;;
6547;SDS011;3307;52.416;16.862;2023-05-15T10:51:03;8.60;;;7.27;;
6547;SDS011;3307;52.416;16.862;2023-05-15T10:53:29;8.00;;;7.00;;
6547;SDS011;3307;52.416;16.862;2023-05-15T10:55:56;8.20;;;7.40;;
6547;SDS011;3307;52.416;16.862;2023-05-15T10:58:22;10.57;;;7.93;;
6547;SDS011;3307;52.416;16.862;2023-05-15T11:00:48;11.77;;;7.37;;
6547;SDS011;3307;52.416;16.862;2023-05-15T11:03:14;10.83;;;7.27;;
6547;SDS011;3307;52.416;16.862;2023-05-15T11:08:31;7.10;;;6.40;;
6547;SDS011;3307;52.416;16.862;2023-05-15T11:10:56;7.57;;;6.83;;
6547;SDS011;3307;52.416;16.862;2023-05-15T11:13:21;10.80;;;8.00;;
6547;SDS011;3307;52.416;16.862;2023-05-15T11:15:47;11.70;;;7.70;;
6547;SDS011;3307;52.416;16.862;2023-05-15T11:18:13;10.07;;;8.10;;
6547;SDS011;3307;52.416;16.862;2023-05-15T11:23:22;8.77;;;7.87;;
6547;SDS011;3307;52.416;16.862;2023-05-15T11:25:57;9.52;;;7.68;;
6547;SDS011;3307;52.416;16.862;2023-05-15T11:28:23;8.43;;;6.90;;
6547;SDS011;3307;52.416;16.862;2023-05-15T11:30:49;12.00;;;7.50;;
6547;SDS011;3307;52.416;16.862;2023-05-15T11:33:16;10.10;;;8.20;;
6547;SDS011;3307;52.416;16.862;2023-05-15T11:35:42;10.35;;;7.38;;
6547;SDS011;3307;52.416;16.862;2023-05-15T11:40:54;10.00;;;7.70;;
6547;SDS011;3307;52.416;16.862;2023-05-15T11:43:26;10.48;;;8.27;;
6547;SDS011;3307;52.416;16.862;2023-05-15T11:48:30;9.70;;;7.25;;
6547;SDS011;3307;52.416;16.862;2023-05-15T11:51:10;8.80;;;7.70;;
6547;SDS011;3307;52.416;16.862;2023-05-15T11:53:39;11.83;;;8.47;;
6547;SDS011;3307;52.416;16.862;2023-05-15T11:56:05;8.03;;;7.23;;
6547;SDS011;3307;52.416;16.862;2023-05-15T11:58:31;8.97;;;7.23;;
6547;SDS011;3307;52.416;16.862;2023-05-15T12:00:56;10.53;;;7.27;;
6547;SDS011;3307;52.416;16.862;2023-05-15T12:03:22;8.07;;;7.23;;
6547;SDS011;3307;52.416;16.862;2023-05-15T12:05:50;10.47;;;8.50;;
6547;SDS011;3307;52.416;16.862;2023-05-15T12:08:15;10.27;;;7.45;;
6547;SDS011;3307;52.416;16.862;2023-05-15T12:10:41;11.20;;;7.53;;
6547;SDS011;3307;52.416;16.862;2023-05-15T12:13:09;8.80;;;7.60;;
6547;SDS011;3307;52.416;16.862;2023-05-15T12:15:38;9.47;;;7.37;;
6547;SDS011;3307;52.416;16.862;2023-05-15T12:18:05;8.93;;;7.10;;
6547;SDS011;3307;52.416;16.862;2023-05-15T12:20:34;9.43;;;8.13;;
6547;SDS011;3307;52.416;16.862;2023-05-15T12:23:01;11.77;;;8.27;;
6547;SDS011;3307;52.416;16.862;2023-05-15T12:25:38;10.23;;;8.27;;
6547;SDS011;3307;52.416;16.862;2023-05-15T12:28:04;10.30;;;7.00;;
6547;SDS011;3307;52.416;16.862;2023-05-15T12:30:30;9.55;;;7.65;;
6547;SDS011;3307;52.416;16.862;2023-05-15T12:33:00;7.93;;;7.10;;
6547;SDS011;3307;52.416;16.862;2023-05-15T12:35:28;11.00;;;7.73;;
6547;SDS011;3307;52.416;16.862;2023-05-15T12:37:54;9.30;;;7.60;;
6547;SDS011;3307;52.416;16.862;2023-05-15T12:40:20;8.00;;;7.20;;
6547;SDS011;3307;52.416;16.862;2023-05-15T12:42:49;9.43;;;7.53;;
6547;SDS011;3307;52.416;16.862;2023-05-15T12:45:20;8.83;;;7.70;;
6547;SDS011;3307;52.416;16.862;2023-05-15T12:47:47;9.07;;;7.30;;
6547;SDS011;3307;52.416;16.862;2023-05-15T12:50:18;10.33;;;7.77;;
6547;SDS011;3307;52.416;16.862;2023-05-15T12:55:21;8.00;;;7.20;;
6547;SDS011;3307;52.416;16.862;2023-05-15T12:57:47;9.10;;;7.50;;
6547;SDS011;3307;52.416;16.862;2023-05-15T13:00:13;10.37;;;7.80;;
6547;SDS011;3307;52.416;16.862;2023-05-15T13:02:41;11.05;;;7.68;;
6547;SDS011;3307;52.416;16.862;2023-05-15T13:05:08;11.87;;;7.97;;
6547;SDS011;3307;52.416;16.862;2023-05-15T13:07:33;10.00;;;7.40;;
6547;SDS011;3307;52.416;16.862;2023-05-15T13:10:05;13.30;;;7.70;;
6547;SDS011;3307;52.416;16.862;2023-05-15T13:12:38;10.40;;;8.10;;
6547;SDS011;3307;52.416;16.862;2023-05-15T13:15:07;8.70;;;7.30;;
6547;SDS011;3307;52.416;16.862;2023-05-15T13:17:46;10.97;;;8.20;;
6547;SDS011;3307;52.416;16.862;2023-05-15T13:20:11;11.53;;;8.80;;
6547;SDS011;3307;52.416;16.862;2023-05-15T13:22:37;10.97;;;8.80;;
6547;SDS011;3307;52.416;16.862;2023-05-15T13:25:02;11.17;;;8.43;;
6547;SDS011;3307;52.416;16.862;2023-05-15T13:27:28;11.30;;;8.23;;
6547;SDS011;3307;52.416;16.862;2023-05-15T13:29:54;10.60;;;8.20;;
6547;SDS011;3307;52.416;16.862;2023-05-15T13:32:19;10.57;;;7.87;;
6547;SDS011;3307;52.416;16.862;2023-05-15T13:34:46;8.87;;;6.80;;
6547;SDS011;3307;52.416;16.862;2023-05-15T13:37:11;9.77;;;8.40;;
6547;SDS011;3307;52.416;16.862;2023-05-15T13:39:36;11.20;;;9.33;;
6547;SDS011;3307;52.416;16.862;2023-05-15T13:42:02;10.57;;;7.97;;
6547;SDS011;3307;52.416;16.862;2023-05-15T13:44:27;12.10;;;9.00;;
6547;SDS011;3307;52.416;16.862;2023-05-15T13:46:53;11.77;;;9.07;;
6547;SDS011;3307;52.416;16.862;2023-05-15T13:49:18;11.07;;;7.67;;
6547;SDS011;3307;52.416;16.862;2023-05-15T13:51:43;9.13;;;7.33;;
6547;SDS011;3307;52.416;16.862;2023-05-15T13:54:09;9.40;;;7.60;;
6547;SDS011;3307;52.416;16.862;2023-05-15T13:56:35;8.83;;;7.70;;
6547;SDS011;3307;52.416;16.862;2023-05-15T13:59:00;9.50;;;8.50;;
6547;SDS011;3307;52.416;16.862;2023-05-15T14:01:25;11.50;;;7.93;;
6547;SDS011;3307;52.416;16.862;2023-05-15T14:03:51;11.03;;;8.60;;
6547;SDS011;3307;52.416;16.862;2023-05-15T14:06:16;10.17;;;8.03;;
6547;SDS011;3307;52.416;16.862;2023-05-15T14:08:42;12.50;;;8.93;;
6547;SDS011;3307;52.416;16.862;2023-05-15T14:11:07;9.70;;;7.50;;
6547;SDS011;3307;52.416;16.862;2023-05-15T14:13:33;10.53;;;8.57;;
6547;SDS011;3307;52.416;16.862;2023-05-15T14:15:58;10.83;;;8.17;;
6547;SDS011;3307;52.416;16.862;2023-05-15T14:18:23;10.77;;;8.90;;
6547;SDS011;3307;52.416;16.862;2023-05-15T14:20:49;12.80;;;9.10;;
6547;SDS011;3307;52.416;16.862;2023-05-15T14:23:15;10.30;;;8.33;;
6547;SDS011;3307;52.416;16.862;2023-05-15T14:25:40;8.20;;;7.40;;
6547;SDS011;3307;52.416;16.862;2023-05-15T14:28:05;11.10;;;7.43;;
6547;SDS011;3307;52.416;16.862;2023-05-15T14:30:31;9.60;;;7.60;;
6547;SDS011;3307;52.416;16.862;2023-05-15T14:32:56;9.43;;;7.43;;
6547;SDS011;3307;52.416;16.862;2023-05-15T14:35:22;14.27;;;8.90;;
6547;SDS011;3307;52.416;16.862;2023-05-15T14:37:47;11.30;;;8.70;;
6547;SDS011;3307;52.416;16.862;2023-05-15T14:40:13;9.77;;;7.93;;
6547;SDS011;3307;52.416;16.862;2023-05-15T14:42:38;9.30;;;7.00;;
6547;SDS011;3307;52.416;16.862;2023-05-15T14:45:04;9.50;;;7.03;;
6547;SDS011;3307;52.416;16.862;2023-05-15T14:47:30;8.23;;;7.43;;
6547;SDS011;3307;52.416;16.862;2023-05-15T14:49:55;10.00;;;8.10;;
6547;SDS011;3307;52.416;16.862;2023-05-15T14:52:21;8.63;;;7.63;;
6547;SDS011;3307;52.416;16.862;2023-05-15T14:54:46;10.10;;;7.87;;
6547;SDS011;3307;52.416;16.862;2023-05-15T14:57:12;10.80;;;9.17;;
6547;SDS011;3307;52.416;16.862;2023-05-15T14:59:38;8.07;;;6.50;;
6547;SDS011;3307;52.416;16.862;2023-05-15T15:02:03;10.00;;;8.53;;
6547;SDS011;3307;52.416;16.862;2023-05-15T15:04:29;10.57;;;8.13;;
6547;SDS011;3307;52.416;16.862;2023-05-15T15:06:58;14.80;;;9.13;;
6547;SDS011;3307;52.416;16.862;2023-05-15T15:09:27;12.40;;;9.88;;
6547;SDS011;3307;52.416;16.862;2023-05-15T15:11:52;11.10;;;8.60;;
6547;SDS011;3307;52.416;16.862;2023-05-15T15:14:18;13.37;;;8.90;;
6547;SDS011;3307;52.416;16.862;2023-05-15T15:16:43;11.40;;;7.97;;
6547;SDS011;3307;52.416;16.862;2023-05-15T15:19:09;12.05;;;8.38;;
6547;SDS011;3307;52.416;16.862;2023-05-15T15:21:35;13.50;;;9.70;;
6547;SDS011;3307;52.416;16.862;2023-05-15T15:24:01;10.30;;;7.37;;
6547;SDS011;3307;52.416;16.862;2023-05-15T15:26:26;9.50;;;6.90;;
6547;SDS011;3307;52.416;16.862;2023-05-15T15:28:51;11.47;;;9.10;;